sensor_id;sensor_type;location;lat;lon;timestamp;pressure;altitude;pressure_sealevel;temperature;humidity
64551;BME280;50945;44.472;-123.352;2023-03-23T00:02:00;99963.75;;;11.94;63.41
64551;BME280;50945;44.472;-123.352;2023-03-23T00:04:26;99980.31;;;11.86;63.84
64551;BME280;50945;44.472;-123.352;2023-03-23T00:06:54;99975.25;;;11.83;64.07
64551;BME280;50945;44.472;-123.352;2023-03-23T00:09:20;99977.53;;;11.79;63.06
64551;BME280;50945;44.472;-123.352;2023-03-23T00:11:50;99979.84;;;11.75;63.59
64551;BME280;50945;44.472;-123.352;2023-03-23T00:14:17;99977.50;;;11.72;63.15
64551;BME280;50945;44.472;-123.352;2023-03-23T00:16:48;99977.50;;;11.72;63.61
64551;BME280;50945;44.472;-123.352;2023-03-23T00:19:16;99988.88;;;11.76;63.48
64551;BME280;50945;44.472;-123.352;2023-03-23T00:21:45;99993.28;;;11.70;62.80
64551;BME280;50945;44.472;-123.352;2023-03-23T00:24:14;99990.97;;;11.67;62.85
64551;BME280;50945;44.472;-123.352;2023-03-23T00:26:44;99993.03;;;11.65;63.82
64551;BME280;50945;44.472;-123.352;2023-03-23T00:29:19;99992.34;;;11.56;63.84
64551;BME280;50945;44.472;-123.352;2023-03-23T00:31:49;99999.84;;;11.41;64.71
64551;BME280;50945;44.472;-123.352;2023-03-23T00:34:20;99998.75;;;11.35;65.51
64551;BME280;50945;44.472;-123.352;2023-03-23T00:36:47;100013.19;;;11.29;65.52
64551;BME280;50945;44.472;-123.352;2023-03-23T00:39:14;100006.94;;;11.14;65.47
64551;BME280;50945;44.472;-123.352;2023-03-23T00:41:44;100014.59;;;10.97;66.43
64551;BME280;50945;44.472;-123.352;2023-03-23T00:44:11;100012.41;;;10.86;67.52
64551;BME280;50945;44.472;-123.352;2023-03-23T00:46:46;100012.69;;;10.76;66.81
64551;BME280;50945;44.472;-123.352;2023-03-23T00:49:16;100019.53;;;10.65;67.40
64551;BME280;50945;44.472;-123.352;2023-03-23T00:51:43;100019.19;;;10.53;68.64
64551;BME280;50945;44.472;-123.352;2023-03-23T00:54:11;100026.06;;;10.49;67.46
64551;BME280;50945;44.472;-123.352;2023-03-23T00:56:37;100020.47;;;10.36;69.94
64551;BME280;50945;44.472;-123.352;2023-03-23T00:59:05;100031.09;;;10.31;68.90
64551;BME280;50945;44.472;-123.352;2023-03-23T01:01:32;100029.47;;;10.21;70.07
64551;BME280;50945;44.472;-123.352;2023-03-23T01:04:01;100043.44;;;10.12;69.84
64551;BME280;50945;44.472;-123.352;2023-03-23T01:06:35;100034.97;;;10.06;70.57
64551;BME280;50945;44.472;-123.352;2023-03-23T01:09:08;100042.22;;;9.99;70.57
64551;BME280;50945;44.472;-123.352;2023-03-23T01:11:35;100038.84;;;9.97;71.55
64551;BME280;50945;44.472;-123.352;2023-03-23T01:14:05;100052.84;;;9.94;71.61
64551;BME280;50945;44.472;-123.352;2023-03-23T01:16:31;100061.22;;;9.93;71.88
64551;BME280;50945;44.472;-123.352;2023-03-23T01:19:00;100058.50;;;9.93;70.11
64551;BME280;50945;44.472;-123.352;2023-03-23T01:21:28;100070.28;;;9.93;71.04
64551;BME280;50945;44.472;-123.352;2023-03-23T01:23:54;100072.34;;;9.91;71.70
64551;BME280;50945;44.472;-123.352;2023-03-23T01:26:23;100076.47;;;9.87;70.33
64551;BME280;50945;44.472;-123.352;2023-03-23T01:28:49;100076.56;;;9.79;70.61
64551;BME280;50945;44.472;-123.352;2023-03-23T01:31:26;100078.63;;;9.77;71.58
64551;BME280;50945;44.472;-123.352;2023-03-23T01:33:53;100091.16;;;9.71;71.64
64551;BME280;50945;44.472;-123.352;2023-03-23T01:36:25;100094.63;;;9.65;70.98
64551;BME280;50945;44.472;-123.352;2023-03-23T01:38:54;100086.63;;;9.63;71.43
64551;BME280;50945;44.472;-123.352;2023-03-23T01:41:21;100092.75;;;9.65;70.71
64551;BME280;50945;44.472;-123.352;2023-03-23T01:44:05;100097.84;;;9.68;71.00
64551;BME280;50945;44.472;-123.352;2023-03-23T01:46:33;100101.59;;;9.67;70.55
64551;BME280;50945;44.472;-123.352;2023-03-23T01:49:09;100116.06;;;9.68;70.20
64551;BME280;50945;44.472;-123.352;2023-03-23T01:51:49;100112.16;;;9.70;70.71
64551;BME280;50945;44.472;-123.352;2023-03-23T01:54:20;100122.88;;;9.72;70.33
64551;BME280;50945;44.472;-123.352;2023-03-23T01:57:10;100117.03;;;9.75;71.08
64551;BME280;50945;44.472;-123.352;2023-03-23T01:59:38;100131.16;;;9.79;70.10
64551;BME280;50945;44.472;-123.352;2023-03-23T02:02:04;100133.72;;;9.80;70.08
64551;BME280;50945;44.472;-123.352;2023-03-23T02:04:34;100137.66;;;9.78;70.06
64551;BME280;50945;44.472;-123.352;2023-03-23T02:07:00;100143.31;;;9.76;70.21
64551;BME280;50945;44.472;-123.352;2023-03-23T02:09:27;100148.59;;;9.78;70.64
64551;BME280;50945;44.472;-123.352;2023-03-23T02:11:54;100147.75;;;9.77;70.18
64551;BME280;50945;44.472;-123.352;2023-03-23T02:14:20;100148.59;;;9.78;71.28
64551;BME280;50945;44.472;-123.352;2023-03-23T02:19:48;100147.75;;;9.77;70.94
64551;BME280;50945;44.472;-123.352;2023-03-23T02:28:16;100171.84;;;9.74;70.94
64551;BME280;50945;44.472;-123.352;2023-03-23T02:33:32;100172.19;;;9.70;70.51
64551;BME280;50945;44.472;-123.352;2023-03-23T02:36:12;100175.28;;;9.67;70.62
64551;BME280;50945;44.472;-123.352;2023-03-23T02:39:10;100175.47;;;9.66;71.41
64551;BME280;50945;44.472;-123.352;2023-03-23T02:42:02;100170.75;;;9.60;72.37
64551;BME280;50945;44.472;-123.352;2023-03-23T02:44:31;100175.06;;;9.54;71.21
64551;BME280;50945;44.472;-123.352;2023-03-23T02:47:00;100182.94;;;9.49;71.27
64551;BME280;50945;44.472;-123.352;2023-03-23T02:49:32;100181.41;;;9.46;71.33
64551;BME280;50945;44.472;-123.352;2023-03-23T02:52:06;100178.69;;;9.46;72.19
64551;BME280;50945;44.472;-123.352;2023-03-23T02:54:33;100185.38;;;9.44;71.83
64551;BME280;50945;44.472;-123.352;2023-03-23T02:57:01;100190.16;;;9.42;72.11
64551;BME280;50945;44.472;-123.352;2023-03-23T02:59:28;100186.75;;;9.40;71.68
64551;BME280;50945;44.472;-123.352;2023-03-23T03:02:01;100199.72;;;9.38;71.91
64551;BME280;50945;44.472;-123.352;2023-03-23T03:04:31;100193.78;;;9.34;71.98
64551;BME280;50945;44.472;-123.352;2023-03-23T03:09:36;100196.31;;;9.36;72.29
64551;BME280;50945;44.472;-123.352;2023-03-23T03:15:13;100208.56;;;9.40;73.79
64551;BME280;50945;44.472;-123.352;2023-03-23T03:17:57;100205.56;;;9.35;72.36
64551;BME280;50945;44.472;-123.352;2023-03-23T03:20:26;100211.72;;;9.28;72.89
64551;BME280;50945;44.472;-123.352;2023-03-23T03:22:54;100215.66;;;9.26;72.67
64551;BME280;50945;44.472;-123.352;2023-03-23T03:25:25;100217.72;;;9.24;73.12
64551;BME280;50945;44.472;-123.352;2023-03-23T03:27:53;100222.88;;;9.19;72.88
64551;BME280;50945;44.472;-123.352;2023-03-23T03:30:25;100228.84;;;9.14;73.16
64551;BME280;50945;44.472;-123.352;2023-03-23T03:32:56;100231.06;;;9.10;73.47
64551;BME280;50945;44.472;-123.352;2023-03-23T03:35:26;100232.31;;;9.08;73.58
64551;BME280;50945;44.472;-123.352;2023-03-23T03:37:52;100237.59;;;9.01;75.94
64551;BME280;50945;44.472;-123.352;2023-03-23T03:40:21;100236.25;;;8.97;73.37
64551;BME280;50945;44.472;-123.352;2023-03-23T03:42:48;100241.91;;;8.96;73.48
64551;BME280;50945;44.472;-123.352;2023-03-23T03:45:17;100249.22;;;8.95;74.15
64551;BME280;50945;44.472;-123.352;2023-03-23T03:47:44;100248.53;;;8.93;73.51
64551;BME280;50945;44.472;-123.352;2023-03-23T03:50:11;100243.25;;;8.91;73.58
64551;BME280;50945;44.472;-123.352;2023-03-23T03:52:38;100250.94;;;8.88;74.08
64551;BME280;50945;44.472;-123.352;2023-03-23T03:55:07;100255.91;;;8.84;74.19
64551;BME280;50945;44.472;-123.352;2023-03-23T03:57:34;100253.72;;;8.80;74.46
64551;BME280;50945;44.472;-123.352;2023-03-23T04:00:00;100264.13;;;8.76;74.07
64551;BME280;50945;44.472;-123.352;2023-03-23T04:02:37;100260.03;;;8.72;74.63
64551;BME280;50945;44.472;-123.352;2023-03-23T04:05:04;100263.97;;;8.69;74.25
64551;BME280;50945;44.472;-123.352;2023-03-23T04:07:30;100266.84;;;8.68;74.11
64551;BME280;50945;44.472;-123.352;2023-03-23T04:09:56;100266.19;;;8.66;74.44
64551;BME280;50945;44.472;-123.352;2023-03-23T04:12:22;100261.91;;;8.63;74.27
64551;BME280;50945;44.472;-123.352;2023-03-23T04:14:48;100279.31;;;8.62;74.78
64551;BME280;50945;44.472;-123.352;2023-03-23T04:17:15;100277.44;;;8.63;74.65
64551;BME280;50945;44.472;-123.352;2023-03-23T04:19:43;100276.59;;;8.62;74.90
64551;BME280;50945;44.472;-123.352;2023-03-23T04:22:11;100282.03;;;8.62;75.00
64551;BME280;50945;44.472;-123.352;2023-03-23T04:24:37;100289.53;;;8.60;75.01
64551;BME280;50945;44.472;-123.352;2023-03-23T04:27:03;100300.44;;;8.60;75.12
64551;BME280;50945;44.472;-123.352;2023-03-23T04:29:30;100301.44;;;8.59;74.99
64551;BME280;50945;44.472;-123.352;2023-03-23T04:31:59;100308.63;;;8.60;74.82
64551;BME280;50945;44.472;-123.352;2023-03-23T04:34:27;100306.72;;;8.61;75.31
64551;BME280;50945;44.472;-123.352;2023-03-23T04:36:53;100307.75;;;8.60;74.93
64551;BME280;50945;44.472;-123.352;2023-03-23T04:39:22;100313.38;;;8.58;75.44
64551;BME280;50945;44.472;-123.352;2023-03-23T04:41:49;100315.41;;;8.56;74.91
64551;BME280;50945;44.472;-123.352;2023-03-23T04:44:17;100314.72;;;8.54;75.22
64551;BME280;50945;44.472;-123.352;2023-03-23T04:46:47;100318.84;;;8.50;75.02
64551;BME280;50945;44.472;-123.352;2023-03-23T04:49:15;100327.50;;;8.45;74.88
64551;BME280;50945;44.472;-123.352;2023-03-23T04:51:47;100329.19;;;8.38;75.52
64551;BME280;50945;44.472;-123.352;2023-03-23T04:54:14;100330.56;;;8.34;75.53
64551;BME280;50945;44.472;-123.352;2023-03-23T04:56:40;100335.50;;;8.30;75.39
64551;BME280;50945;44.472;-123.352;2023-03-23T04:59:07;100341.28;;;8.27;75.91
64551;BME280;50945;44.472;-123.352;2023-03-23T05:01:33;100348.78;;;8.25;76.06
64551;BME280;50945;44.472;-123.352;2023-03-23T05:04:03;100348.94;;;8.24;75.43
64551;BME280;50945;44.472;-123.352;2023-03-23T05:06:30;100347.06;;;8.24;76.05
64551;BME280;50945;44.472;-123.352;2023-03-23T05:08:56;100367.16;;;8.23;76.05
64551;BME280;50945;44.472;-123.352;2023-03-23T05:11:22;100362.03;;;8.20;75.92
64551;BME280;50945;44.472;-123.352;2023-03-23T05:13:48;100369.88;;;8.15;75.86
64551;BME280;50945;44.472;-123.352;2023-03-23T05:16:16;100376.00;;;8.09;75.98
64551;BME280;50945;44.472;-123.352;2023-03-23T05:18:43;100370.03;;;8.05;76.22
64551;BME280;50945;44.472;-123.352;2023-03-23T05:21:10;100369.69;;;8.00;75.90
64551;BME280;50945;44.472;-123.352;2023-03-23T05:23:37;100379.03;;;7.97;76.09
64551;BME280;50945;44.472;-123.352;2023-03-23T05:26:03;100380.22;;;7.95;76.23
64551;BME280;50945;44.472;-123.352;2023-03-23T05:28:29;100385.00;;;7.93;76.15
64551;BME280;50945;44.472;-123.352;2023-03-23T05:30:58;100388.72;;;7.92;76.43
64551;BME280;50945;44.472;-123.352;2023-03-23T05:33:24;100387.53;;;7.86;76.30
64551;BME280;50945;44.472;-123.352;2023-03-23T05:35:51;100393.13;;;7.85;76.24
64551;BME280;50945;44.472;-123.352;2023-03-23T05:38:17;100389.72;;;7.83;76.08
64551;BME280;50945;44.472;-123.352;2023-03-23T05:40:43;100394.66;;;7.79;76.49
64551;BME280;50945;44.472;-123.352;2023-03-23T05:43:10;100391.94;;;7.79;76.28
64551;BME280;50945;44.472;-123.352;2023-03-23T05:45:37;100402.97;;;7.77;76.25
64551;BME280;50945;44.472;-123.352;2023-03-23T05:48:04;100402.44;;;7.74;76.16
64551;BME280;50945;44.472;-123.352;2023-03-23T05:50:30;100399.22;;;7.70;75.68
64551;BME280;50945;44.472;-123.352;2023-03-23T05:52:57;100409.72;;;7.65;76.47
64551;BME280;50945;44.472;-123.352;2023-03-23T05:55:23;100408.00;;;7.56;76.83
64551;BME280;50945;44.472;-123.352;2023-03-23T05:57:50;100402.50;;;7.48;76.37
64551;BME280;50945;44.472;-123.352;2023-03-23T06:00:17;100411.03;;;7.45;76.87
64551;BME280;50945;44.472;-123.352;2023-03-23T06:02:48;100407.06;;;7.39;76.92
64551;BME280;50945;44.472;-123.352;2023-03-23T06:05:16;100409.97;;;7.37;76.57
64551;BME280;50945;44.472;-123.352;2023-03-23T06:07:43;100412.84;;;7.36;76.78
64551;BME280;50945;44.472;-123.352;2023-03-23T06:10:10;100408.56;;;7.33;78.02
64551;BME280;50945;44.472;-123.352;2023-03-23T06:12:38;100412.47;;;7.31;77.96
64551;BME280;50945;44.472;-123.352;2023-03-23T06:15:05;100414.16;;;7.32;78.27
64551;BME280;50945;44.472;-123.352;2023-03-23T06:17:33;100415.03;;;7.32;77.45
64551;BME280;50945;44.472;-123.352;2023-03-23T06:19:59;100418.59;;;7.33;77.58
64551;BME280;50945;44.472;-123.352;2023-03-23T06:22:26;100419.44;;;7.33;77.31
64551;BME280;50945;44.472;-123.352;2023-03-23T06:24:52;100418.59;;;7.33;76.89
64551;BME280;50945;44.472;-123.352;2023-03-23T06:27:18;100426.75;;;7.33;76.80
64551;BME280;50945;44.472;-123.352;2023-03-23T06:29:46;100421.31;;;7.33;77.06
64551;BME280;50945;44.472;-123.352;2023-03-23T06:32:14;100423.19;;;7.32;76.98
64551;BME280;50945;44.472;-123.352;2023-03-23T06:34:40;100421.47;;;7.31;77.09
64551;BME280;50945;44.472;-123.352;2023-03-23T06:37:10;100420.81;;;7.29;77.35
64551;BME280;50945;44.472;-123.352;2023-03-23T06:39:38;100415.69;;;7.26;77.28
64551;BME280;50945;44.472;-123.352;2023-03-23T06:42:04;100412.59;;;7.21;77.61
64551;BME280;50945;44.472;-123.352;2023-03-23T06:44:31;100412.41;;;7.14;77.59
64551;BME280;50945;44.472;-123.352;2023-03-23T06:46:57;100413.56;;;7.12;77.11
64551;BME280;50945;44.472;-123.352;2023-03-23T06:49:24;100414.75;;;7.09;77.47
64551;BME280;50945;44.472;-123.352;2023-03-23T06:51:50;100414.91;;;7.08;77.57
64551;BME280;50945;44.472;-123.352;2023-03-23T06:54:16;100420.34;;;7.08;77.21
64551;BME280;50945;44.472;-123.352;2023-03-23T06:56:42;100412.34;;;7.06;77.77
64551;BME280;50945;44.472;-123.352;2023-03-23T06:59:08;100410.97;;;7.02;77.10
64551;BME280;50945;44.472;-123.352;2023-03-23T07:01:35;100422.31;;;6.97;77.81
64551;BME280;50945;44.472;-123.352;2023-03-23T07:04:02;100417.19;;;6.94;76.96
64551;BME280;50945;44.472;-123.352;2023-03-23T07:06:28;100424.66;;;6.92;76.51
64551;BME280;50945;44.472;-123.352;2023-03-23T07:08:54;100424.44;;;6.85;76.73
64551;BME280;50945;44.472;-123.352;2023-03-23T07:11:21;100430.50;;;6.79;77.73
64551;BME280;50945;44.472;-123.352;2023-03-23T07:13:47;100432.53;;;6.77;77.57
64551;BME280;50945;44.472;-123.352;2023-03-23T07:16:18;100435.41;;;6.76;78.02
64551;BME280;50945;44.472;-123.352;2023-03-23T07:18:44;100441.00;;;6.74;77.27
64551;BME280;50945;44.472;-123.352;2023-03-23T07:21:11;100438.91;;;6.68;78.57
64551;BME280;50945;44.472;-123.352;2023-03-23T07:23:37;100442.31;;;6.70;78.15
64551;BME280;50945;44.472;-123.352;2023-03-23T07:26:03;100443.56;;;6.76;77.68
64551;BME280;50945;44.472;-123.352;2023-03-23T07:28:30;100461.41;;;6.78;77.90
64551;BME280;50945;44.472;-123.352;2023-03-23T07:30:56;100446.81;;;6.79;78.11
64551;BME280;50945;44.472;-123.352;2023-03-23T07:33:23;100453.97;;;6.80;79.17
64551;BME280;50945;44.472;-123.352;2023-03-23T07:35:49;100456.50;;;6.82;78.78
64551;BME280;50945;44.472;-123.352;2023-03-23T07:38:15;100455.34;;;6.84;77.75
64551;BME280;50945;44.472;-123.352;2023-03-23T07:40:41;100463.34;;;6.86;78.16
64551;BME280;50945;44.472;-123.352;2023-03-23T07:43:08;100456.88;;;6.87;77.78
64551;BME280;50945;44.472;-123.352;2023-03-23T07:45:34;100464.03;;;6.88;77.61
64551;BME280;50945;44.472;-123.352;2023-03-23T07:48:00;100462.31;;;6.87;78.02
64551;BME280;50945;44.472;-123.352;2023-03-23T07:50:27;100456.34;;;6.83;78.19
64551;BME280;50945;44.472;-123.352;2023-03-23T07:52:56;100449.22;;;6.82;78.06
64551;BME280;50945;44.472;-123.352;2023-03-23T07:55:23;100444.47;;;6.84;78.12
64551;BME280;50945;44.472;-123.352;2023-03-23T07:57:52;100448.19;;;6.83;77.52
64551;BME280;50945;44.472;-123.352;2023-03-23T08:00:19;100459.06;;;6.83;77.91
64551;BME280;50945;44.472;-123.352;2023-03-23T08:02:56;100450.53;;;6.78;78.49
64551;BME280;50945;44.472;-123.352;2023-03-23T08:05:23;100453.88;;;6.72;78.51
64551;BME280;50945;44.472;-123.352;2023-03-23T08:07:52;100456.22;;;6.67;78.67
64551;BME280;50945;44.472;-123.352;2023-03-23T08:10:21;100462.97;;;6.63;78.22
64551;BME280;50945;44.472;-123.352;2023-03-23T08:12:51;100462.59;;;6.58;78.56
64551;BME280;50945;44.472;-123.352;2023-03-23T08:15:19;100460.19;;;6.55;77.97
64551;BME280;50945;44.472;-123.352;2023-03-23T08:17:47;100464.22;;;6.51;77.91
64551;BME280;50945;44.472;-123.352;2023-03-23T08:20:14;100470.81;;;6.48;77.71
64551;BME280;50945;44.472;-123.352;2023-03-23T08:22:43;100465.72;;;6.45;77.85
64551;BME280;50945;44.472;-123.352;2023-03-23T08:25:12;100459.41;;;6.44;77.85
64551;BME280;50945;44.472;-123.352;2023-03-23T08:27:40;100468.72;;;6.42;77.91
64551;BME280;50945;44.472;-123.352;2023-03-23T08:30:15;100468.19;;;6.38;77.85
64551;BME280;50945;44.472;-123.352;2023-03-23T08:32:42;100454.91;;;6.35;77.46
64551;BME280;50945;44.472;-123.352;2023-03-23T08:35:11;100460.25;;;6.27;77.68
64551;BME280;50945;44.472;-123.352;2023-03-23T08:37:38;100461.31;;;6.16;77.78
64551;BME280;50945;44.472;-123.352;2023-03-23T08:40:05;100463.28;;;6.06;78.38
64551;BME280;50945;44.472;-123.352;2023-03-23T08:42:43;100467.13;;;6.03;78.54
64551;BME280;50945;44.472;-123.352;2023-03-23T08:45:12;100472.84;;;6.00;78.56
64551;BME280;50945;44.472;-123.352;2023-03-23T08:47:41;100485.88;;;5.97;78.59
64551;BME280;50945;44.472;-123.352;2023-03-23T08:50:14;100489.03;;;5.92;78.77
64551;BME280;50945;44.472;-123.352;2023-03-23T08:52:41;100490.50;;;5.86;79.14
64551;BME280;50945;44.472;-123.352;2023-03-23T08:55:09;100481.94;;;5.81;79.06
64551;BME280;50945;44.472;-123.352;2023-03-23T08:57:36;100494.09;;;5.77;79.02
64551;BME280;50945;44.472;-123.352;2023-03-23T09:00:05;100492.69;;;5.73;79.40
64551;BME280;50945;44.472;-123.352;2023-03-23T09:02:41;100496.72;;;5.69;79.33
64551;BME280;50945;44.472;-123.352;2023-03-23T09:05:09;100498.00;;;5.65;79.75
64551;BME280;50945;44.472;-123.352;2023-03-23T09:07:40;100502.03;;;5.61;80.00
64551;BME280;50945;44.472;-123.352;2023-03-23T09:10:07;100492.50;;;5.57;79.89
64551;BME280;50945;44.472;-123.352;2023-03-23T09:12:35;100492.06;;;5.51;80.08
64551;BME280;50945;44.472;-123.352;2023-03-23T09:15:03;100506.22;;;5.45;80.37
64551;BME280;50945;44.472;-123.352;2023-03-23T09:17:38;100505.81;;;5.40;80.52
64551;BME280;50945;44.472;-123.352;2023-03-23T09:20:06;100500.69;;;5.37;80.84
64551;BME280;50945;44.472;-123.352;2023-03-23T09:22:40;100506.41;;;5.34;80.75
64551;BME280;50945;44.472;-123.352;2023-03-23T09:25:08;100502.00;;;5.33;81.16
64551;BME280;50945;44.472;-123.352;2023-03-23T09:27:36;100496.56;;;5.33;80.92
64551;BME280;50945;44.472;-123.352;2023-03-23T09:30:06;100506.13;;;5.27;80.86
64551;BME280;50945;44.472;-123.352;2023-03-23T09:32:34;100507.44;;;5.23;81.45
64551;BME280;50945;44.472;-123.352;2023-03-23T09:35:06;100505.16;;;5.19;81.33
64551;BME280;50945;44.472;-123.352;2023-03-23T09:37:39;100510.19;;;5.13;81.60
64551;BME280;50945;44.472;-123.352;2023-03-23T09:40:11;100508.88;;;5.08;82.06
64551;BME280;50945;44.472;-123.352;2023-03-23T09:48:05;100504.63;;;4.95;82.25
64551;BME280;50945;44.472;-123.352;2023-03-23T09:50:35;100501.50;;;4.90;82.48
64551;BME280;50945;44.472;-123.352;2023-03-23T09:55:38;100494.66;;;4.86;82.96
64551;BME280;50945;44.472;-123.352;2023-03-23T10:01:08;100505.63;;;4.85;82.82
64551;BME280;50945;44.472;-123.352;2023-03-23T10:03:42;100501.22;;;4.84;85.79
64551;BME280;50945;44.472;-123.352;2023-03-23T10:06:17;100498.94;;;4.79;83.49
64551;BME280;50945;44.472;-123.352;2023-03-23T10:08:52;100509.22;;;4.75;83.12
64551;BME280;50945;44.472;-123.352;2023-03-23T10:11:36;100504.94;;;4.73;83.64
64551;BME280;50945;44.472;-123.352;2023-03-23T10:17:08;100504.81;;;4.74;83.41
64551;BME280;50945;44.472;-123.352;2023-03-23T10:22:19;100503.78;;;4.75;83.74
64551;BME280;50945;44.472;-123.352;2023-03-23T10:25:03;100508.50;;;4.73;83.96
64551;BME280;50945;44.472;-123.352;2023-03-23T10:27:57;100506.78;;;4.72;84.27
64551;BME280;50945;44.472;-123.352;2023-03-23T10:30:35;100501.66;;;4.69;83.78
64551;BME280;50945;44.472;-123.352;2023-03-23T10:33:17;100506.53;;;4.66;83.76
64551;BME280;50945;44.472;-123.352;2023-03-23T10:35:50;100504.09;;;4.63;83.78
64551;BME280;50945;44.472;-123.352;2023-03-23T10:38:31;100510.47;;;4.62;83.95
64551;BME280;50945;44.472;-123.352;2023-03-23T10:41:04;100508.09;;;4.59;83.57
64551;BME280;50945;44.472;-123.352;2023-03-23T10:43:32;100511.06;;;4.55;84.10
64551;BME280;50945;44.472;-123.352;2023-03-23T10:48:57;100509.47;;;4.53;84.12
64551;BME280;50945;44.472;-123.352;2023-03-23T10:51:36;100504.06;;;4.53;83.96
64551;BME280;50945;44.472;-123.352;2023-03-23T10:54:04;100504.06;;;4.53;84.05
64551;BME280;50945;44.472;-123.352;2023-03-23T10:56:40;100507.66;;;4.53;84.20
64551;BME280;50945;44.472;-123.352;2023-03-23T11:01:44;100512.94;;;4.55;83.84
64551;BME280;50945;44.472;-123.352;2023-03-23T11:04:16;100500.09;;;4.57;82.95
64551;BME280;50945;44.472;-123.352;2023-03-23T11:06:45;100504.38;;;4.60;82.97
64551;BME280;50945;44.472;-123.352;2023-03-23T11:09:15;100509.63;;;4.61;82.94
64551;BME280;50945;44.472;-123.352;2023-03-23T11:11:54;100509.63;;;4.61;83.20
64551;BME280;50945;44.472;-123.352;2023-03-23T11:16:53;100504.94;;;4.63;83.05
64551;BME280;50945;44.472;-123.352;2023-03-23T11:19:32;100505.63;;;4.65;82.88
64551;BME280;50945;44.472;-123.352;2023-03-23T11:24:36;100508.91;;;4.69;82.98
64551;BME280;50945;44.472;-123.352;2023-03-23T11:27:07;100497.94;;;4.70;83.23
64551;BME280;50945;44.472;-123.352;2023-03-23T11:29:36;100497.66;;;4.73;82.93
64551;BME280;50945;44.472;-123.352;2023-03-23T11:32:10;100503.50;;;4.79;82.58
64551;BME280;50945;44.472;-123.352;2023-03-23T11:34:43;100492.41;;;4.82;82.91
64551;BME280;50945;44.472;-123.352;2023-03-23T11:37:14;100501.78;;;4.87;83.01
64551;BME280;50945;44.472;-123.352;2023-03-23T11:40:00;100503.06;;;4.93;82.85
64551;BME280;50945;44.472;-123.352;2023-03-23T11:42:42;100497.06;;;4.99;82.79
64551;BME280;50945;44.472;-123.352;2023-03-23T11:47:54;100488.06;;;5.08;82.38
64551;BME280;50945;44.472;-123.352;2023-03-23T11:50:34;100496.75;;;5.12;82.70
64551;BME280;50945;44.472;-123.352;2023-03-23T11:56:27;100506.88;;;5.20;83.42
64551;BME280;50945;44.472;-123.352;2023-03-23T11:58:56;100504.72;;;5.23;82.63
64551;BME280;50945;44.472;-123.352;2023-03-23T12:04:37;100505.13;;;5.28;82.29
64551;BME280;50945;44.472;-123.352;2023-03-23T12:07:14;100510.41;;;5.30;81.77
64551;BME280;50945;44.472;-123.352;2023-03-23T12:18:15;100508.13;;;5.25;84.29
64551;BME280;50945;44.472;-123.352;2023-03-23T12:21:12;100505.41;;;5.25;84.89
64551;BME280;50945;44.472;-123.352;2023-03-23T12:26:56;100515.00;;;5.20;85.98
64551;BME280;50945;44.472;-123.352;2023-03-23T12:29:53;100515.97;;;5.19;85.03
64551;BME280;50945;44.472;-123.352;2023-03-23T12:46:40;100514.72;;;5.13;85.70
64551;BME280;50945;44.472;-123.352;2023-03-23T12:49:15;100515.31;;;5.07;85.45
64551;BME280;50945;44.472;-123.352;2023-03-23T12:57:27;100517.88;;;4.99;87.33
64551;BME280;50945;44.472;-123.352;2023-03-23T13:05:42;100517.59;;;4.92;86.23
64551;BME280;50945;44.472;-123.352;2023-03-23T13:08:18;100519.59;;;4.90;85.97
64551;BME280;50945;44.472;-123.352;2023-03-23T13:10:48;100522.44;;;4.88;86.23
64551;BME280;50945;44.472;-123.352;2023-03-23T13:13:26;100516.19;;;4.88;88.82
64551;BME280;50945;44.472;-123.352;2023-03-23T13:16:04;100516.31;;;4.86;87.62
64551;BME280;50945;44.472;-123.352;2023-03-23T13:21:30;100521.19;;;4.83;89.42
64551;BME280;50945;44.472;-123.352;2023-03-23T13:24:10;100531.16;;;4.82;88.62
64551;BME280;50945;44.472;-123.352;2023-03-23T13:26:43;100521.88;;;4.85;88.12
64551;BME280;50945;44.472;-123.352;2023-03-23T13:29:13;100524.31;;;4.88;88.37
64551;BME280;50945;44.472;-123.352;2023-03-23T13:31:41;100524.16;;;4.89;87.81
64551;BME280;50945;44.472;-123.352;2023-03-23T13:34:21;100522.03;;;4.93;88.64
64551;BME280;50945;44.472;-123.352;2023-03-23T13:36:59;100520.16;;;4.93;87.80
64551;BME280;50945;44.472;-123.352;2023-03-23T13:39:32;100514.88;;;4.92;92.23
64551;BME280;50945;44.472;-123.352;2023-03-23T13:57:52;100502.09;;;4.74;90.00
64551;BME280;50945;44.472;-123.352;2023-03-23T14:00:48;100495.66;;;4.75;89.54
64551;BME280;50945;44.472;-123.352;2023-03-23T14:11:00;100500.38;;;4.73;89.17
64551;BME280;50945;44.472;-123.352;2023-03-23T14:18:52;100502.66;;;4.78;89.89
64551;BME280;50945;44.472;-123.352;2023-03-23T14:21:36;100500.66;;;4.80;90.51
64551;BME280;50945;44.472;-123.352;2023-03-23T14:24:26;100496.94;;;4.81;90.21
64551;BME280;50945;44.472;-123.352;2023-03-23T14:27:02;100490.53;;;4.82;92.46
64551;BME280;50945;44.472;-123.352;2023-03-23T14:29:34;100499.50;;;4.83;89.45
64551;BME280;50945;44.472;-123.352;2023-03-23T14:32:00;100494.78;;;4.85;90.06
64551;BME280;50945;44.472;-123.352;2023-03-23T14:34:29;100500.38;;;4.83;90.05
64551;BME280;50945;44.472;-123.352;2023-03-23T14:36:57;100500.38;;;4.83;89.88
64551;BME280;50945;44.472;-123.352;2023-03-23T14:39:35;100503.09;;;4.83;88.87
64551;BME280;50945;44.472;-123.352;2023-03-23T14:42:05;100499.38;;;4.84;92.27
64551;BME280;50945;44.472;-123.352;2023-03-23T14:44:40;100497.50;;;4.85;90.77
64551;BME280;50945;44.472;-123.352;2023-03-23T14:47:13;100492.09;;;4.85;89.89
64551;BME280;50945;44.472;-123.352;2023-03-23T14:49:43;100485.53;;;4.87;91.24